Time;durP1;ratioP1;P1;durP2;ratioP2;P2;SDS_P1;SDS_P2;PMS_P1;PMS_P2;Temp;Humidity;BMP_temperature;BMP_pressure;BME280_temperature;BME280_humidity;BME280_pressure;Samples;Min_cycle;Max_cycle;Signal;HPM_P1;HPM_P2
2023/10/28 00:01:36;;;;;;;41.05;16.92;;;9.80;99.90;;;9.67;100.00;98236.44;5027283;28;20741;-82
2023/10/28 00:04:04;;;;;;;40.17;15.70;;;9.80;99.90;;;9.64;100.00;98235.09;5010129;28;20140;-82
2023/10/28 00:06:30;;;;;;;39.78;16.02;;;9.80;99.90;;;9.68;100.00;98240.81;5019302;28;20045;-83
2023/10/28 00:08:56;;;;;;;40.97;16.83;;;9.80;99.90;;;9.66;100.00;98242.16;5027468;28;20382;-82
2023/10/28 00:11:22;;;;;;;38.70;15.73;;;9.80;99.90;;;9.64;100.00;98248.69;5028725;28;20127;-83
2023/10/28 00:13:49;;;;;;;43.53;16.73;;;9.80;99.90;;;9.60;100.00;98244.88;5023768;28;20076;-82
2023/10/28 00:16:15;;;;;;;37.83;15.43;;;9.80;99.90;;;9.58;100.00;98260.66;5028412;28;20034;-82
2023/10/28 00:18:44;;;;;;;36.95;15.88;;;9.70;99.90;;;9.60;100.00;98263.09;5036344;28;20156;-81
2023/10/28 00:21:11;;;;;;;31.60;14.77;;;9.70;99.90;;;9.60;100.00;98261.22;5020789;28;20033;-82
2023/10/28 00:23:38;;;;;;;35.78;15.38;;;9.70;99.90;;;9.60;100.00;98266.66;5033649;28;20038;-82
2023/10/28 00:26:05;;;;;;;37.40;15.23;;;9.70;99.90;;;9.58;100.00;98263.38;5025277;28;20113;-82
2023/10/28 00:28:35;;;;;;;41.00;17.02;;;9.70;99.90;;;9.61;100.00;98264.75;5026894;28;20037;-82
2023/10/28 00:31:04;;;;;;;39.25;15.50;;;9.80;99.90;;;9.63;100.00;98265.28;5021707;28;20040;-82
2023/10/28 00:33:30;;;;;;;45.75;17.17;;;9.80;99.90;;;9.60;100.00;98261.22;5021643;28;20483;-82
2023/10/28 00:35:56;;;;;;;42.55;17.90;;;9.80;99.90;;;9.58;100.00;98263.38;5036052;28;20124;-82
2023/10/28 00:38:23;;;;;;;49.67;18.38;;;9.80;99.90;;;9.55;100.00;98261.22;5036504;28;20026;-83
2023/10/28 00:40:49;;;;;;;59.93;17.87;;;9.80;99.90;;;9.54;100.00;98259.53;5017047;28;20482;-83
2023/10/28 00:43:21;;;;;;;53.30;18.15;;;9.80;99.90;;;9.53;100.00;98252.47;5013319;28;20775;-82
2023/10/28 00:45:47;;;;;;;39.20;16.83;;;9.80;99.90;;;9.54;100.00;98243.22;5027899;28;20049;-82
2023/10/28 00:48:16;;;;;;;44.17;17.60;;;9.80;99.90;;;9.53;100.00;98241.56;5013759;28;20030;-83
2023/10/28 00:50:46;;;;;;;46.65;17.73;;;9.80;99.90;;;9.57;100.00;98248.16;5025896;28;20037;-82
2023/10/28 00:53:12;;;;;;;43.70;17.90;;;9.80;99.90;;;9.58;100.00;98238.88;5004512;28;20029;-82
2023/10/28 00:55:40;;;;;;;43.45;17.25;;;9.80;99.90;;;9.59;100.00;98234.25;5013883;28;20095;-82
2023/10/28 00:58:06;;;;;;;48.50;18.20;;;9.80;99.90;;;9.53;100.00;98236.13;5014476;28;20104;-82
2023/10/28 01:00:32;;;;;;;45.38;16.98;;;9.80;99.90;;;9.45;100.00;98240.22;5031392;28;20049;-82
2023/10/28 01:02:58;;;;;;;52.22;16.95;;;9.70;99.90;;;9.34;100.00;98239.38;5026719;28;20056;-82
2023/10/28 01:05:27;;;;;;;41.55;17.05;;;9.60;99.90;;;9.25;100.00;98240.97;5013743;28;20434;-83
2023/10/28 01:07:52;;;;;;;39.35;16.52;;;9.50;99.90;;;9.13;100.00;98248.53;5029914;28;20494;-82
2023/10/28 01:10:31;;;;;;;40.40;15.77;;;9.40;99.90;;;8.99;100.00;98264.53;5023081;28;20039;-82
2023/10/28 01:13:00;;;;;;;34.42;15.23;;;9.20;99.90;;;8.95;100.00;98277.03;5023098;28;20045;-83
2023/10/28 01:15:27;;;;;;;50.85;15.77;;;9.20;99.90;;;8.88;100.00;98269.09;5024607;28;20545;-82
2023/10/28 01:17:53;;;;;;;51.15;17.77;;;9.10;99.90;;;8.82;100.00;98276.41;5012529;28;20033;-83
2023/10/28 01:20:19;;;;;;;54.30;17.58;;;9.10;99.90;;;8.73;100.00;98270.63;5015435;28;20033;-83
2023/10/28 01:22:45;;;;;;;44.17;16.77;;;9.00;99.90;;;8.68;100.00;98267.91;5029707;28;20034;-82
2023/10/28 01:25:11;;;;;;;45.63;17.13;;;9.00;99.90;;;8.68;100.00;98267.91;5024256;28;20037;-83
2023/10/28 01:27:38;;;;;;;39.05;14.93;;;9.00;99.90;;;8.66;100.00;98261.91;5025748;28;20033;-83
2023/10/28 01:30:07;;;;;;;39.97;15.82;;;9.00;99.90;;;8.69;100.00;98266.81;5025853;28;20136;-82
2023/10/28 01:32:33;;;;;;;43.03;16.63;;;8.90;99.90;;;8.69;100.00;98255.94;5027328;28;20033;-82
2023/10/28 01:34:59;;;;;;;39.92;15.65;;;8.90;99.90;;;8.71;100.00;98259.22;5030886;28;20044;-82
2023/10/28 01:37:24;;;;;;;55.20;17.08;;;9.00;99.90;;;8.73;100.00;98248.88;5016451;28;20037;-82
2023/10/28 01:39:52;;;;;;;38.92;15.75;;;9.00;99.90;;;8.72;100.00;98228.22;5026654;28;20037;-82
2023/10/28 01:42:20;;;;;;;61.33;18.17;;;9.00;99.90;;;8.81;100.00;98233.19;5034279;28;20172;-82
2023/10/28 01:44:49;;;;;;;106.05;17.90;;;9.10;99.90;;;8.81;100.00;98231.25;5016145;28;20137;-83
2023/10/28 01:47:15;;;;;;;60.38;16.80;;;9.10;99.90;;;8.79;100.00;98228.00;5020560;28;20048;-82
2023/10/28 01:49:42;;;;;;;57.13;17.08;;;9.10;99.90;;;8.84;100.00;98229.94;5020746;28;20033;-83
2023/10/28 01:52:12;;;;;;;51.72;17.50;;;9.10;99.90;;;8.88;100.00;98226.41;5025969;28;20025;-83
2023/10/28 01:54:41;;;;;;;58.22;18.10;;;9.20;99.90;;;8.90;100.00;98228.88;5018477;28;20100;-83
2023/10/28 01:57:10;;;;;;;50.00;17.35;;;9.20;99.90;;;8.89;100.00;98221.78;5029020;28;20034;-83
2023/10/28 01:59:39;;;;;;;62.53;17.48;;;9.20;99.90;;;8.88;100.00;98215.53;5020208;28;20060;-82
2023/10/28 02:02:07;;;;;;;66.47;18.85;;;9.20;99.90;;;8.92;100.00;98215.81;5026899;28;20044;-83
2023/10/28 02:04:34;;;;;;;71.72;18.92;;;9.20;99.90;;;8.92;100.00;98222.09;5025100;28;20789;-83
2023/10/28 02:07:00;;;;;;;55.97;17.25;;;9.20;99.90;;;8.92;100.00;98215.81;4996272;28;20553;-83
2023/10/28 02:09:33;;;;;;;52.25;16.85;;;9.20;99.90;;;8.91;100.00;98219.63;5024304;28;20046;-83
2023/10/28 02:12:04;;;;;;;111.95;19.92;;;9.10;99.90;;;8.95;100.00;98209.84;5026268;28;20041;-83
2023/10/28 02:14:33;;;;;;;165.02;21.45;;;9.20;99.90;;;8.90;100.00;98210.66;5034177;28;20073;-83
2023/10/28 02:16:59;;;;;;;55.55;17.67;;;9.10;99.90;;;8.95;100.00;98222.63;5013455;28;20045;-82
2023/10/28 02:19:25;;;;;;;53.80;17.42;;;9.20;99.90;;;8.95;100.00;98211.75;5033981;28;20026;-83
2023/10/28 02:21:51;;;;;;;66.93;19.52;;;9.20;99.90;;;8.96;100.00;98211.47;5000646;28;20046;-83
2023/10/28 02:24:19;;;;;;;54.97;19.15;;;9.20;99.90;;;8.97;100.00;98212.31;5035659;28;20091;-83
2023/10/28 02:26:45;;;;;;;64.70;19.58;;;9.20;99.90;;;9.01;100.00;98229.72;5020753;28;20045;-82
2023/10/28 02:29:12;;;;;;;54.92;18.50;;;9.20;99.90;;;9.02;100.00;98218.59;5012863;28;20040;-83
2023/10/28 02:31:39;;;;;;;52.28;17.88;;;9.30;99.90;;;9.05;100.00;98225.38;5013377;28;20033;-82
2023/10/28 02:34:07;;;;;;;46.67;17.50;;;9.30;99.90;;;9.05;100.00;98218.06;5020838;28;20343;-82
2023/10/28 02:36:33;;;;;;;70.93;18.27;;;9.30;99.90;;;9.04;100.00;98224.59;5016779;28;20038;-82
2023/10/28 02:39:00;;;;;;;67.03;17.77;;;9.30;99.90;;;9.04;100.00;98218.31;5029295;28;20041;-82
2023/10/28 02:41:26;;;;;;;67.18;19.02;;;9.30;99.90;;;8.95;100.00;98215.28;5045478;28;20586;-82
2023/10/28 02:43:52;;;;;;;50.30;16.83;;;9.30;99.90;;;9.01;100.00;98216.13;5031069;28;20038;-82
2023/10/28 02:46:22;;;;;;;56.72;17.48;;;9.30;99.90;;;9.00;100.00;98209.84;5023574;28;20037;-82
2023/10/28 02:48:48;;;;;;;71.88;18.42;;;9.20;99.90;;;8.95;100.00;98204.41;5020253;28;20034;-82
2023/10/28 02:51:14;;;;;;;54.10;17.23;;;9.20;99.90;;;8.96;100.00;98219.63;5038248;28;20029;-83
2023/10/28 02:53:40;;;;;;;60.25;17.70;;;9.10;99.90;;;8.94;100.00;98227.25;5021991;28;20544;-83
2023/10/28 02:56:06;;;;;;;58.63;17.85;;;9.10;99.90;;;8.91;100.00;98235.94;5020244;28;20044;-82
2023/10/28 02:58:33;;;;;;;64.15;19.98;;;9.10;99.90;;;8.80;100.00;98237.78;5017997;28;20028;-83
2023/10/28 03:01:11;;;;;;;67.88;20.77;;;9.10;99.90;;;8.88;100.00;98234.56;5016426;28;20049;-83
2023/10/28 03:03:38;;;;;;;79.22;23.13;;;9.20;99.90;;;8.89;100.00;98232.66;5027156;28;20630;-83
2023/10/28 03:06:05;;;;;;;51.90;19.13;;;9.20;99.90;;;8.88;100.00;98229.13;5028496;28;20037;-82
2023/10/28 03:08:31;;;;;;;63.23;21.13;;;9.10;99.90;;;8.91;100.00;98231.34;5023254;28;20036;-83
2023/10/28 03:10:57;;;;;;;65.43;22.17;;;9.20;99.90;;;8.87;100.00;98237.56;5014598;28;20116;-82
2023/10/28 03:13:23;;;;;;;81.38;23.17;;;9.20;99.90;;;8.88;100.00;98226.41;5013686;28;20084;-82
2023/10/28 03:15:49;;;;;;;71.47;21.75;;;9.20;99.90;;;8.87;100.00;98224.75;5024001;28;20038;-83
2023/10/28 03:18:15;;;;;;;87.82;23.00;;;9.20;99.90;;;8.88;100.00;98220.97;5030480;28;20056;-83
2023/10/28 03:20:41;;;;;;;78.55;23.40;;;9.20;99.90;;;8.89;100.00;98216.34;5024029;28;20061;-83
2023/10/28 03:23:08;;;;;;;77.18;21.73;;;9.20;99.90;;;8.86;100.00;98214.16;5027589;28;20626;-83
2023/10/28 03:25:33;;;;;;;65.53;21.30;;;9.10;99.90;;;8.82;100.00;98222.03;5011789;28;20041;-83
2023/10/28 03:28:04;;;;;;;60.22;18.75;;;9.10;99.90;;;8.75;100.00;98216.84;5028078;28;20037;-83
2023/10/28 03:30:32;;;;;;;50.25;18.25;;;9.00;99.90;;;8.72;100.00;98217.34;5024925;28;20036;-83
2023/10/28 03:32:59;;;;;;;69.60;19.73;;;9.00;99.90;;;8.69;100.00;98217.88;5027816;28;20440;-84
2023/10/28 03:35:25;;;;;;;52.97;18.83;;;8.90;99.90;;;8.65;100.00;98238.53;5020795;28;20499;-83
2023/10/28 03:37:51;;;;;;;58.47;18.70;;;8.90;99.90;;;8.65;100.00;98238.53;5000481;28;20046;-83
2023/10/28 03:40:17;;;;;;;48.60;17.73;;;8.90;99.90;;;8.69;100.00;98239.63;5046371;28;20064;-83
2023/10/28 03:42:43;;;;;;;58.83;19.00;;;9.00;99.90;;;8.74;100.00;98228.78;5030819;28;20080;-83
2023/10/28 03:45:09;;;;;;;59.55;18.65;;;9.00;99.90;;;8.75;100.00;98218.72;5028614;28;20083;-84
2023/10/28 03:47:35;;;;;;;60.15;18.58;;;9.00;99.90;;;8.81;100.00;98228.53;5028078;28;20040;-84
2023/10/28 03:50:01;;;;;;;58.78;18.13;;;9.10;99.90;;;8.78;100.00;98212.75;5014215;28;20435;-83
2023/10/28 03:52:27;;;;;;;53.58;17.30;;;9.10;99.90;;;8.80;100.00;98201.63;5024860;28;20102;-84
2023/10/28 03:54:53;;;;;;;64.43;19.85;;;9.10;99.90;;;8.84;100.00;98217.13;5029519;28;20041;-84
2023/10/28 03:57:19;;;;;;;57.60;18.45;;;9.10;99.90;;;8.86;100.00;98216.88;5025876;28;20045;-84
2023/10/28 03:59:46;;;;;;;49.85;18.02;;;9.10;99.90;;;8.85;100.00;98216.06;5022720;28;20068;-84
2023/10/28 04:02:12;;;;;;;55.00;18.90;;;9.10;99.90;;;8.89;100.00;98221.78;5030655;28;20091;-84
2023/10/28 04:04:38;;;;;;;50.72;16.70;;;9.10;99.90;;;8.88;100.00;98223.69;5021204;28;20070;-84
2023/10/28 04:07:04;;;;;;;48.78;16.50;;;9.20;99.90;;;8.91;100.00;98222.34;5024579;28;20501;-85
2023/10/28 04:09:30;;;;;;;58.17;17.52;;;9.20;99.90;;;8.87;100.00;98219.31;5027212;28;20034;-83
2023/10/28 04:11:55;;;;;;;43.58;16.45;;;9.20;99.90;;;8.89;100.00;98222.63;5026849;28;20030;-84
2023/10/28 04:14:21;;;;;;;45.60;16.52;;;9.20;99.90;;;8.92;100.00;98221.25;5024051;28;20033;-82
2023/10/28 04:16:47;;;;;;;51.65;17.15;;;9.20;99.90;;;8.82;100.00;98222.03;5023274;28;20038;-84
2023/10/28 04:19:13;;;;;;;52.33;17.45;;;9.10;99.90;;;8.82;100.00;98229.38;5028081;28;20064;-83
2023/10/28 04:21:38;;;;;;;48.17;16.92;;;9.10;99.90;;;8.80;100.00;98232.34;5016886;28;20100;-84
2023/10/28 04:24:05;;;;;;;48.42;15.80;;;9.10;99.90;;;8.77;100.00;98217.41;5032238;28;20072;-85
2023/10/28 04:26:30;;;;;;;46.65;16.02;;;9.10;99.90;;;8.83;100.00;98222.84;5025617;28;20103;-85
2023/10/28 04:29:00;;;;;;;49.72;15.68;;;9.10;99.90;;;8.88;100.00;98231.03;5015121;28;20446;-85
2023/10/28 04:31:29;;;;;;;48.50;15.35;;;9.10;99.90;;;8.89;100.00;98232.66;5020475;28;20045;-85
2023/10/28 04:33:55;;;;;;;50.38;16.40;;;9.20;99.90;;;8.91;100.00;98234.06;5016127;28;20030;-84
2023/10/28 04:36:22;;;;;;;62.67;17.38;;;9.20;99.90;;;8.94;100.00;98235.41;5013137;28;20041;-82
2023/10/28 04:38:48;;;;;;;51.25;15.82;;;9.20;99.90;;;8.91;100.00;98227.78;5030380;28;20037;-84
2023/10/28 04:41:14;;;;;;;45.50;16.08;;;9.20;99.90;;;8.89;100.00;98221.78;5032487;28;20038;-81
2023/10/28 04:43:39;;;;;;;44.25;15.43;;;9.20;99.90;;;8.86;100.00;98220.41;5026437;28;20053;-79
2023/10/28 04:46:06;;;;;;;42.58;16.08;;;9.10;99.90;;;8.87;100.00;98229.41;5032750;28;20037;-82
2023/10/28 04:48:32;;;;;;;45.03;15.52;;;9.10;99.90;;;8.84;100.00;98227.22;5017441;28;20037;-84
2023/10/28 04:50:58;;;;;;;39.80;14.55;;;9.10;99.90;;;8.79;100.00;98236.16;5021807;28;20041;-82
2023/10/28 04:53:24;;;;;;;40.70;15.07;;;9.10;99.90;;;8.84;100.00;98240.81;5032337;28;20041;-79
2023/10/28 04:55:50;;;;;;;42.55;15.55;;;9.20;99.90;;;8.81;100.00;98233.97;5027307;28;20037;-80
2023/10/28 04:58:16;;;;;;;42.88;15.75;;;9.10;99.90;;;8.84;100.00;98236.16;5023252;28;20397;-80
2023/10/28 05:00:42;;;;;;;44.92;15.65;;;9.10;99.90;;;8.85;100.00;98231.56;5037376;28;20109;-80
2023/10/28 05:03:08;;;;;;;43.47;16.38;;;9.10;99.90;;;8.86;100.00;98234.00;5026931;28;20034;-81
2023/10/28 05:05:34;;;;;;;43.75;16.05;;;9.10;99.90;;;8.83;100.00;98239.97;5018296;28;20495;-81
2023/10/28 05:08:00;;;;;;;47.60;16.30;;;9.10;99.90;;;8.82;100.00;98232.09;5020391;28;20145;-80
2023/10/28 05:10:25;;;;;;;43.65;15.40;;;9.10;99.90;;;8.79;100.00;98238.88;5018071;28;20041;-80
2023/10/28 05:12:51;;;;;;;49.28;16.08;;;9.10;99.90;;;8.80;100.00;98235.06;5029008;28;20030;-81
2023/10/28 05:15:17;;;;;;;37.40;14.23;;;9.10;99.90;;;8.84;100.00;98235.38;5028751;28;20060;-81
2023/10/28 05:17:43;;;;;;;44.22;16.40;;;9.10;99.90;;;8.84;100.00;98240.81;5031915;28;20425;-79
2023/10/28 05:20:10;;;;;;;36.95;14.18;;;9.10;99.90;;;8.80;100.00;98235.06;5023868;28;20041;-80
2023/10/28 05:22:37;;;;;;;45.90;15.80;;;9.10;99.90;;;8.87;100.00;98235.63;5027140;28;20112;-81
2023/10/28 05:25:04;;;;;;;48.72;16.75;;;9.10;99.90;;;8.84;100.00;98235.38;5025423;28;20185;-80
2023/10/28 05:27:31;;;;;;;37.63;14.63;;;9.20;99.90;;;8.85;100.00;98239.72;5021308;28;20045;-80
2023/10/28 05:29:57;;;;;;;32.78;12.88;;;9.20;99.90;;;8.78;100.00;98220.91;5025966;28;20497;-81
2023/10/28 05:32:23;;;;;;;29.50;11.95;;;9.20;99.90;;;8.83;100.00;98229.09;5031921;28;20092;-81
2023/10/28 05:34:48;;;;;;;30.70;11.00;;;9.20;99.90;;;8.83;100.00;98220.94;5031640;28;20063;-80
2023/10/28 05:37:14;;;;;;;28.83;11.57;;;9.20;99.90;;;8.88;100.00;98231.03;5031114;28;20489;-80
2023/10/28 05:39:40;;;;;;;30.45;11.25;;;9.20;99.90;;;8.88;100.00;98225.59;5032126;28;20038;-80
2023/10/28 05:42:11;;;;;;;29.27;10.38;;;9.20;99.90;;;8.90;100.00;98231.59;5031589;28;20083;-79
2023/10/28 05:44:37;;;;;;;27.30;11.90;;;9.20;99.90;;;8.97;100.00;98231.34;5024712;28;20116;-81
2023/10/28 05:47:04;;;;;;;22.40;10.52;;;9.30;99.90;;;8.97;100.00;98248.47;5044685;28;20046;-79
2023/10/28 05:49:30;;;;;;;22.10;9.97;;;9.30;99.90;;;8.95;100.00;98234.31;5020874;28;20033;-79
2023/10/28 05:51:56;;;;;;;22.38;9.60;;;9.30;99.90;;;8.96;100.00;98230.50;5035160;28;20406;-79
2023/10/28 05:54:22;;;;;;;22.77;9.75;;;9.30;99.90;;;9.03;100.00;98247.44;5018837;28;20513;-80
2023/10/28 05:56:47;;;;;;;26.27;9.90;;;9.30;99.90;;;9.01;100.00;98246.03;5025673;28;20029;-80
2023/10/28 05:59:14;;;;;;;23.92;9.55;;;9.30;99.90;;;9.03;100.00;98254.75;5018299;28;20040;-80
2023/10/28 06:01:40;;;;;;;22.60;10.15;;;9.30;99.90;;;9.11;100.00;98261.59;5028895;28;20053;-80
2023/10/28 06:04:06;;;;;;;22.48;9.02;;;9.40;99.90;;;9.14;100.00;98274.66;5029880;28;20033;-80
2023/10/28 06:06:32;;;;;;;20.77;8.95;;;9.40;99.90;;;9.11;100.00;98277.91;5019211;28;20393;-80
2023/10/28 06:08:58;;;;;;;15.98;8.73;;;9.40;99.90;;;9.07;100.00;98273.00;5025399;28;20049;-80
2023/10/28 06:11:24;;;;;;;23.42;9.00;;;9.40;99.90;;;9.08;100.00;98279.25;5024850;28;20033;-80
2023/10/28 06:13:50;;;;;;;16.35;8.43;;;9.40;99.90;;;9.12;100.00;98293.16;5022228;28;20029;-80
2023/10/28 06:16:18;;;;;;;16.70;8.63;;;9.40;99.90;;;9.10;100.00;98293.41;5011875;28;20033;-79
2023/10/28 06:18:45;;;;;;;24.13;8.45;;;9.40;99.90;;;9.08;100.00;98281.97;5030151;28;20108;-81
2023/10/28 06:21:11;;;;;;;14.73;7.63;;;9.40;99.90;;;9.12;100.00;98304.84;5030746;28;20072;-79
2023/10/28 06:23:39;;;;;;;15.13;7.80;;;9.40;99.90;;;9.10;100.00;98290.69;5014431;28;20037;-79
2023/10/28 06:26:07;;;;;;;15.80;8.18;;;9.40;99.90;;;9.13;100.00;98306.47;5011313;28;20030;-76
2023/10/28 06:28:34;;;;;;;20.50;8.48;;;9.40;99.90;;;9.14;100.00;98320.91;5024503;28;20489;-78
2023/10/28 06:31:00;;;;;;;16.48;7.65;;;9.40;99.90;;;9.13;100.00;98322.78;5014258;28;20477;-77
2023/10/28 06:33:26;;;;;;;13.10;7.50;;;9.40;99.90;;;9.15;100.00;98327.97;5026844;28;20155;-76
2023/10/28 06:35:52;;;;;;;18.55;8.10;;;9.40;99.90;;;9.13;100.00;98328.22;5031623;28;20041;-80
2023/10/28 06:38:18;;;;;;;16.85;8.30;;;9.40;99.90;;;9.13;100.00;98322.78;5035943;28;20029;-81
2023/10/28 06:40:47;;;;;;;19.05;8.38;;;9.40;99.90;;;9.20;100.00;98333.44;5031977;28;20041;-77
2023/10/28 06:43:14;;;;;;;14.38;7.45;;;9.50;99.90;;;9.23;100.00;98343.78;5024877;28;20045;-77
2023/10/28 06:45:41;;;;;;;21.00;8.43;;;9.50;99.90;;;9.23;100.00;98345.72;5019190;28;20044;-78
2023/10/28 06:48:07;;;;;;;16.40;7.50;;;9.50;99.90;;;9.25;100.00;98351.69;5026694;28;20044;-78
2023/10/28 06:50:33;;;;;;;19.48;8.15;;;9.50;99.90;;;9.22;100.00;98347.59;5029546;28;20112;-78
2023/10/28 06:53:02;;;;;;;17.05;8.25;;;9.50;99.90;;;9.28;100.00;98353.91;5012244;28;20370;-78
2023/10/28 06:55:28;;;;;;;16.92;7.97;;;9.60;99.90;;;9.29;100.00;98355.53;5027141;28;20038;-80
2023/10/28 06:57:55;;;;;;;16.98;8.02;;;9.50;99.90;;;9.32;100.00;98360.44;5024104;28;20046;-78
2023/10/28 07:00:26;;;;;;;18.73;7.90;;;9.60;99.90;;;9.37;100.00;98362.38;5022798;28;20109;-77
2023/10/28 07:02:53;;;;;;;17.13;7.50;;;9.60;99.90;;;9.37;100.00;98375.97;5030661;28;20057;-77
2023/10/28 07:05:19;;;;;;;21.42;7.40;;;9.60;99.90;;;9.41;100.00;98382.53;5014421;28;20034;-81
2023/10/28 07:07:45;;;;;;;18.35;6.47;;;9.60;99.90;;;9.43;100.00;98383.09;5023320;28;20095;-80
2023/10/28 07:10:14;;;;;;;14.65;6.80;;;9.70;99.90;;;9.46;100.00;98394.28;5024421;28;20042;-80
2023/10/28 07:12:41;;;;;;;14.50;6.40;;;9.70;99.90;;;9.50;100.00;98394.53;5028359;28;20053;-80
2023/10/28 07:15:11;;;;;;;14.15;6.00;;;9.70;99.90;;;9.51;100.00;98407.06;5022234;28;20096;-81
2023/10/28 07:17:39;;;;;;;11.07;5.80;;;9.80;99.90;;;9.52;100.00;98414.16;5023586;28;20044;-79
2023/10/28 07:20:07;;;;;;;13.32;6.25;;;9.70;99.90;;;9.51;100.00;98417.94;5028391;28;20087;-80
2023/10/28 07:22:33;;;;;;;;;;;9.70;99.90;;;9.56;100.00;98418.00;5031879;28;20100;-80
2023/10/28 07:24:59;;;;;;;11.52;5.93;;;9.80;99.90;;;9.49;100.00;98410.06;5020243;28;20300;-80
2023/10/28 07:27:24;;;;;;;18.98;6.35;;;9.80;99.90;;;9.59;100.00;98427.53;5036688;28;20049;-79
2023/10/28 07:29:50;;;;;;;12.55;6.57;;;9.80;99.90;;;9.57;100.00;98418.81;5030304;28;20157;-83
2023/10/28 07:32:16;;;;;;;12.75;6.47;;;9.80;99.90;;;9.63;100.00;98424.00;5030108;28;20048;-81
2023/10/28 07:34:42;;;;;;;13.05;6.55;;;9.90;99.90;;;9.59;100.00;98425.63;5031446;28;20037;-79
2023/10/28 07:37:08;;;;;;;13.02;6.45;;;9.90;99.90;;;9.58;100.00;98443.06;5032193;28;20065;-80
2023/10/28 07:39:34;;;;;;;18.75;7.32;;;9.90;99.90;;;9.56;100.00;98442.50;5020067;28;20489;-80
2023/10/28 07:42:01;;;;;;;15.65;6.53;;;9.90;99.90;;;9.57;100.00;98443.31;5025604;28;20034;-82
2023/10/28 07:44:27;;;;;;;9.50;6.28;;;9.80;99.90;;;9.57;100.00;98448.75;5026991;28;20049;-84
2023/10/28 07:46:52;;;;;;;13.60;6.43;;;9.90;99.90;;;9.61;100.00;98455.28;5019441;28;20080;-80
2023/10/28 07:49:18;;;;;;;12.30;6.40;;;9.90;99.90;;;9.64;100.00;98450.16;5030615;28;20045;-80
2023/10/28 07:51:44;;;;;;;13.85;6.35;;;9.90;99.90;;;9.66;100.00;98459.97;5029764;28;20041;-80
2023/10/28 07:54:13;;;;;;;10.63;5.63;;;9.90;99.90;;;9.64;100.00;98463.75;5045683;28;20042;-79
2023/10/28 07:56:39;;;;;;;14.05;5.82;;;9.90;99.90;;;9.62;100.00;98468.66;5052108;28;20401;-80
2023/10/28 07:59:07;;;;;;;12.85;6.22;;;9.90;99.90;;;9.63;100.00;98472.19;5022837;28;20099;-79
2023/10/28 08:01:33;;;;;;;;;;;9.90;99.90;;;9.55;100.00;98473.53;5011511;28;20034;-80
2023/10/28 08:03:59;;;;;;;12.35;5.68;;;9.90;99.90;;;9.59;100.00;98469.19;5027796;28;20003;-79
2023/10/28 08:06:25;;;;;;;10.40;6.35;;;9.90;99.90;;;9.56;100.00;98469.72;5024588;28;20060;-79
2023/10/28 08:08:55;;;;;;;13.52;7.05;;;9.90;99.90;;;9.62;100.00;98476.00;5025552;28;20034;-78
2023/10/28 08:11:24;;;;;;;12.95;5.93;;;9.90;99.90;;;9.66;100.00;98473.56;5038623;28;20121;-78
2023/10/28 08:13:53;;;;;;;14.93;7.28;;;9.90;99.90;;;9.65;100.00;98475.47;5012961;28;20095;-78
2023/10/28 08:16:20;;;;;;;13.50;6.45;;;10.00;99.90;;;9.67;100.00;98477.94;5023393;28;20500;-78
2023/10/28 08:18:47;;;;;;;13.75;6.70;;;10.00;99.90;;;9.73;100.00;98468.69;5017537;28;20552;-78
2023/10/28 08:21:14;;;;;;;11.47;6.93;;;10.00;99.90;;;9.73;100.00;98469.53;5025280;28;20033;-78
2023/10/28 08:23:41;;;;;;;14.10;7.20;;;10.10;99.90;;;9.81;100.00;98472.81;5020968;28;20044;-79
2023/10/28 08:26:12;;;;;;;15.07;7.68;;;10.10;99.90;;;9.75;100.00;98475.53;5021524;28;20049;-76
2023/10/28 08:28:40;;;;;;;11.63;7.32;;;10.10;99.90;;;9.72;100.00;98476.06;5024934;28;20066;-78
2023/10/28 08:31:09;;;;;;;11.80;7.43;;;10.10;99.90;;;9.72;100.00;98476.06;5020557;28;20037;-77
2023/10/28 08:33:36;;;;;;;11.02;6.88;;;10.10;99.90;;;9.73;100.00;98491.31;5023610;28;20048;-78
2023/10/28 08:36:03;;;;;;;13.27;6.47;;;10.10;99.90;;;9.86;100.00;98490.03;5036579;28;20042;-78
2023/10/28 08:38:29;;;;;;;10.93;6.10;;;10.20;99.90;;;9.86;100.00;98490.03;5023438;28;20045;-81
2023/10/28 08:41:00;;;;;;;11.73;5.75;;;10.20;99.90;;;9.98;100.00;98491.69;5045496;28;20045;-79
2023/10/28 08:43:27;;;;;;;11.95;6.35;;;10.20;99.90;;;9.99;100.00;98487.88;5027111;28;20041;-80
2023/10/28 08:45:54;;;;;;;10.85;5.97;;;10.30;99.90;;;9.95;100.00;98493.06;5026757;28;20037;-81
2023/10/28 08:48:22;;;;;;;11.57;7.05;;;10.30;99.90;;;9.90;100.00;98496.56;5026557;28;20075;-80
2023/10/28 08:50:55;;;;;;;11.77;6.32;;;10.30;99.90;;;9.97;100.00;98490.91;5024077;28;20048;-80
2023/10/28 08:53:22;;;;;;;13.00;6.30;;;10.40;99.90;;;10.14;100.00;98479.78;5032986;28;20050;-80
2023/10/28 08:55:52;;;;;;;15.30;6.35;;;;;;;10.36;100.00;98479.56;5024449;28;20565;-79
2023/10/28 08:58:20;;;;;;;11.43;6.57;;;10.50;99.90;;;10.40;100.00;98481.75;5027804;28;20042;-82
2023/10/28 09:00:50;;;;;;;16.15;7.60;;;10.70;99.90;;;10.46;100.00;98492.44;5026293;28;20116;-81
2023/10/28 09:03:23;;;;;;;13.77;6.32;;;10.80;99.90;;;10.51;100.00;98502.56;5037591;28;20045;-80
2023/10/28 09:05:52;;;;;;;11.45;6.45;;;10.80;99.90;;;10.47;100.00;98524.06;5015330;28;20030;-80
2023/10/28 09:08:20;;;;;;;11.02;5.78;;;10.80;99.90;;;10.55;100.00;98539.09;5039289;28;20034;-81
2023/10/28 09:10:46;;;;;;;10.18;5.80;;;10.90;99.90;;;10.64;100.00;98563.94;5032366;28;20065;-83
2023/10/28 09:13:13;;;;;;;11.82;5.35;;;10.90;99.90;;;10.60;100.00;98585.44;5021617;28;20123;-80
2023/10/28 09:15:40;;;;;;;10.40;4.78;;;10.90;99.90;;;10.58;100.00;98589.53;5024170;28;20038;-78
2023/10/28 09:18:06;;;;;;;10.43;4.60;;;10.90;99.90;;;10.35;100.00;98595.13;5031941;28;20045;-79
2023/10/28 09:20:31;;;;;;;10.80;4.55;;;10.80;99.90;;;10.55;100.00;98626.34;5018394;28;20033;-77
2023/10/28 09:22:57;;;;;;;7.80;4.10;;;10.80;99.90;;;10.50;100.00;98629.06;5025180;28;20034;-79
2023/10/28 09:25:23;;;;;;;12.90;4.53;;;10.80;99.90;;;10.54;100.00;98649.25;5026730;28;20069;-76
2023/10/28 09:27:50;;;;;;;8.95;4.72;;;10.80;99.90;;;10.61;100.00;98663.44;5021002;28;20095;-77
2023/10/28 09:30:17;;;;;;;8.15;4.35;;;10.90;99.90;;;10.53;100.00;98669.41;5020251;28;20030;-76
2023/10/28 09:32:43;;;;;;;9.32;4.28;;;10.90;99.90;;;10.56;100.00;98676.22;5020928;28;20046;-77
2023/10/28 09:35:13;;;;;;;7.57;4.28;;;10.80;99.90;;;10.67;100.00;98679.81;5021515;28;20095;-77
2023/10/28 09:37:40;;;;;;;8.80;4.38;;;10.90;99.90;;;10.71;100.00;98680.94;5019180;28;20115;-77
2023/10/28 09:40:10;;;;;;;10.93;4.00;;;11.00;99.90;;;10.78;100.00;98685.06;5021559;28;20458;-77
2023/10/28 09:42:37;;;;;;;8.35;4.00;;;11.00;99.90;;;10.75;100.00;98691.03;5029458;28;20088;-77
2023/10/28 09:45:09;;;;;;;5.78;3.92;;;;;;;10.92;100.00;98700.94;5027544;28;20465;-77
2023/10/28 09:47:47;;;;;;;8.13;3.90;;;;;;;11.14;100.00;98717.13;5021802;28;20068;-77
2023/10/28 09:50:14;;;;;;;7.15;3.65;;;11.10;99.90;;;11.26;100.00;98730.53;5012643;28;20042;-76
2023/10/28 09:52:48;;;;;;;5.32;3.28;;;11.50;99.90;;;11.59;100.00;98742.06;5029067;28;20390;-78
2023/10/28 09:55:15;;;;;;;8.27;3.63;;;11.80;99.90;;;11.91;100.00;98749.22;5006715;28;20132;-80
2023/10/28 09:57:42;;;;;;;4.60;3.20;;;;;;;12.05;100.00;98803.38;5029558;28;20077;-77
2023/10/28 10:00:21;;;;;;;4.63;2.80;;;;;;;12.25;100.00;98842.78;5025621;28;20040;-78
2023/10/28 10:03:29;;;;;;;4.90;2.53;;;12.20;99.90;;;12.06;100.00;98882.34;5020226;28;20025;-77
2023/10/28 10:05:56;;;;;;;3.88;2.13;;;12.40;99.90;;;12.03;100.00;98912.16;5020215;28;20037;-77
2023/10/28 10:08:25;;;;;;;5.13;2.80;;;12.40;99.90;;;12.17;100.00;98918.75;5024576;28;20037;-77
2023/10/28 10:10:57;;;;;;;8.00;2.80;;;12.50;99.90;;;12.13;100.00;98958.63;5022771;28;20034;-78
2023/10/28 10:13:23;;;;;;;6.53;2.70;;;12.50;99.90;;;12.30;100.00;98952.13;5023896;28;20037;-80
2023/10/28 10:16:03;;;;;;;8.45;2.50;;;;;;;12.53;100.00;98972.69;5024329;28;20037;-77